sensor_id;sensor_type;location;lat;lon;timestamp;temperature;humidity
38333;DHT22;25748;46.670;14.272;2023-04-25T00:02:18;8.50;81.90
38333;DHT22;25748;46.670;14.272;2023-04-25T00:04:44;8.50;82.20
38333;DHT22;25748;46.670;14.272;2023-04-25T00:07:11;8.40;82.70
38333;DHT22;25748;46.670;14.272;2023-04-25T00:09:38;8.40;83.10
38333;DHT22;25748;46.670;14.272;2023-04-25T00:12:04;8.40;83.30
38333;DHT22;25748;46.670;14.272;2023-04-25T00:14:30;8.40;83.40
38333;DHT22;25748;46.670;14.272;2023-04-25T00:16:55;8.40;82.70
38333;DHT22;25748;46.670;14.272;2023-04-25T00:19:21;8.50;83.40
38333;DHT22;25748;46.670;14.272;2023-04-25T00:21:47;8.40;83.10
38333;DHT22;25748;46.670;14.272;2023-04-25T00:24:13;8.50;83.40
38333;DHT22;25748;46.670;14.272;2023-04-25T00:26:38;8.50;83.10
38333;DHT22;25748;46.670;14.272;2023-04-25T00:29:04;8.40;82.40
38333;DHT22;25748;46.670;14.272;2023-04-25T00:31:30;8.40;82.10
38333;DHT22;25748;46.670;14.272;2023-04-25T00:33:56;8.40;81.80
38333;DHT22;25748;46.670;14.272;2023-04-25T00:36:22;8.40;82.00
38333;DHT22;25748;46.670;14.272;2023-04-25T00:38:47;8.40;81.10
38333;DHT22;25748;46.670;14.272;2023-04-25T00:41:13;8.30;80.40
38333;DHT22;25748;46.670;14.272;2023-04-25T00:43:39;8.30;81.40
38333;DHT22;25748;46.670;14.272;2023-04-25T00:46:05;8.30;81.20
38333;DHT22;25748;46.670;14.272;2023-04-25T00:48:31;8.20;80.10
38333;DHT22;25748;46.670;14.272;2023-04-25T00:50:58;8.20;81.00
38333;DHT22;25748;46.670;14.272;2023-04-25T00:53:26;8.20;81.10
38333;DHT22;25748;46.670;14.272;2023-04-25T00:55:53;8.20;81.00
38333;DHT22;25748;46.670;14.272;2023-04-25T00:58:20;8.20;81.00
38333;DHT22;25748;46.670;14.272;2023-04-25T01:00:47;8.20;80.80
38333;DHT22;25748;46.670;14.272;2023-04-25T01:03:14;8.20;81.10
38333;DHT22;25748;46.670;14.272;2023-04-25T01:05:43;8.20;80.70
38333;DHT22;25748;46.670;14.272;2023-04-25T01:08:09;8.20;80.20
38333;DHT22;25748;46.670;14.272;2023-04-25T01:10:35;8.00;79.90
38333;DHT22;25748;46.670;14.272;2023-04-25T01:13:01;8.10;80.60
38333;DHT22;25748;46.670;14.272;2023-04-25T01:15:27;8.10;80.40
38333;DHT22;25748;46.670;14.272;2023-04-25T01:17:53;8.00;80.20
38333;DHT22;25748;46.670;14.272;2023-04-25T01:20:22;8.10;80.20
38333;DHT22;25748;46.670;14.272;2023-04-25T01:22:52;8.00;79.50
38333;DHT22;25748;46.670;14.272;2023-04-25T01:25:19;8.00;79.10
38333;DHT22;25748;46.670;14.272;2023-04-25T01:27:46;7.90;79.00
38333;DHT22;25748;46.670;14.272;2023-04-25T01:30:12;7.90;79.00
38333;DHT22;25748;46.670;14.272;2023-04-25T01:32:38;7.90;79.30
38333;DHT22;25748;46.670;14.272;2023-04-25T01:35:06;7.90;79.20
38333;DHT22;25748;46.670;14.272;2023-04-25T01:37:39;7.90;79.10
38333;DHT22;25748;46.670;14.272;2023-04-25T01:40:07;7.90;79.10
38333;DHT22;25748;46.670;14.272;2023-04-25T01:42:34;7.90;79.20
38333;DHT22;25748;46.670;14.272;2023-04-25T01:45:01;7.90;79.30
38333;DHT22;25748;46.670;14.272;2023-04-25T01:47:26;7.90;79.20
38333;DHT22;25748;46.670;14.272;2023-04-25T01:49:52;7.80;79.20
38333;DHT22;25748;46.670;14.272;2023-04-25T01:52:18;7.80;79.70
38333;DHT22;25748;46.670;14.272;2023-04-25T01:54:44;7.80;79.20
38333;DHT22;25748;46.670;14.272;2023-04-25T01:57:13;7.70;79.30
38333;DHT22;25748;46.670;14.272;2023-04-25T01:59:39;7.80;79.30
38333;DHT22;25748;46.670;14.272;2023-04-25T02:02:06;7.70;79.10
38333;DHT22;25748;46.670;14.272;2023-04-25T02:04:32;7.70;79.20
38333;DHT22;25748;46.670;14.272;2023-04-25T02:06:57;7.70;79.40
38333;DHT22;25748;46.670;14.272;2023-04-25T02:09:23;7.70;79.50
38333;DHT22;25748;46.670;14.272;2023-04-25T02:11:49;7.70;79.60
38333;DHT22;25748;46.670;14.272;2023-04-25T02:14:15;7.70;79.20
38333;DHT22;25748;46.670;14.272;2023-04-25T02:16:40;7.70;79.30
38333;DHT22;25748;46.670;14.272;2023-04-25T02:19:06;7.60;79.20
38333;DHT22;25748;46.670;14.272;2023-04-25T02:21:32;7.60;79.30
38333;DHT22;25748;46.670;14.272;2023-04-25T02:24:01;7.60;79.30
38333;DHT22;25748;46.670;14.272;2023-04-25T02:26:26;7.60;79.10
38333;DHT22;25748;46.670;14.272;2023-04-25T02:28:52;7.50;79.10
38333;DHT22;25748;46.670;14.272;2023-04-25T02:31:18;7.50;79.40
38333;DHT22;25748;46.670;14.272;2023-04-25T02:33:44;7.50;79.50
38333;DHT22;25748;46.670;14.272;2023-04-25T02:36:10;7.50;79.30
38333;DHT22;25748;46.670;14.272;2023-04-25T02:38:35;7.50;79.40
38333;DHT22;25748;46.670;14.272;2023-04-25T02:41:01;7.40;79.30
38333;DHT22;25748;46.670;14.272;2023-04-25T02:43:27;7.40;79.20
38333;DHT22;25748;46.670;14.272;2023-04-25T02:45:52;7.30;79.30
38333;DHT22;25748;46.670;14.272;2023-04-25T02:48:18;7.30;79.90
38333;DHT22;25748;46.670;14.272;2023-04-25T02:50:44;7.20;79.80
38333;DHT22;25748;46.670;14.272;2023-04-25T02:53:10;7.30;80.60
38333;DHT22;25748;46.670;14.272;2023-04-25T02:55:36;7.30;79.90
38333;DHT22;25748;46.670;14.272;2023-04-25T02:58:01;7.20;79.60
38333;DHT22;25748;46.670;14.272;2023-04-25T03:00:27;7.20;80.00
38333;DHT22;25748;46.670;14.272;2023-04-25T03:02:53;7.20;80.10
38333;DHT22;25748;46.670;14.272;2023-04-25T03:05:19;7.20;80.50
38333;DHT22;25748;46.670;14.272;2023-04-25T03:07:45;7.20;80.20
38333;DHT22;25748;46.670;14.272;2023-04-25T03:10:11;7.10;80.30
38333;DHT22;25748;46.670;14.272;2023-04-25T03:12:37;7.10;80.50
38333;DHT22;25748;46.670;14.272;2023-04-25T03:15:03;7.10;79.60
38333;DHT22;25748;46.670;14.272;2023-04-25T03:17:29;7.00;79.30
38333;DHT22;25748;46.670;14.272;2023-04-25T03:19:55;7.10;79.60
38333;DHT22;25748;46.670;14.272;2023-04-25T03:22:21;7.10;79.70
38333;DHT22;25748;46.670;14.272;2023-04-25T03:24:47;7.10;79.40
38333;DHT22;25748;46.670;14.272;2023-04-25T03:27:13;7.10;79.40
38333;DHT22;25748;46.670;14.272;2023-04-25T03:29:39;7.10;79.10
38333;DHT22;25748;46.670;14.272;2023-04-25T03:32:05;7.10;78.70
38333;DHT22;25748;46.670;14.272;2023-04-25T03:34:31;7.10;79.00
38333;DHT22;25748;46.670;14.272;2023-04-25T03:36:57;7.00;78.60
38333;DHT22;25748;46.670;14.272;2023-04-25T03:39:23;7.00;78.70
38333;DHT22;25748;46.670;14.272;2023-04-25T03:41:48;7.00;79.10
38333;DHT22;25748;46.670;14.272;2023-04-25T03:44:14;7.10;79.10
38333;DHT22;25748;46.670;14.272;2023-04-25T03:46:40;7.10;79.10
38333;DHT22;25748;46.670;14.272;2023-04-25T03:49:06;7.10;78.70
38333;DHT22;25748;46.670;14.272;2023-04-25T03:51:32;7.10;78.60
38333;DHT22;25748;46.670;14.272;2023-04-25T03:53:57;7.10;78.20
38333;DHT22;25748;46.670;14.272;2023-04-25T03:56:23;7.10;78.10
38333;DHT22;25748;46.670;14.272;2023-04-25T03:58:49;7.10;77.90
38333;DHT22;25748;46.670;14.272;2023-04-25T04:01:15;7.10;77.90
38333;DHT22;25748;46.670;14.272;2023-04-25T04:03:40;7.10;77.40
38333;DHT22;25748;46.670;14.272;2023-04-25T04:06:07;7.10;76.60
38333;DHT22;25748;46.670;14.272;2023-04-25T04:08:33;7.00;75.80
38333;DHT22;25748;46.670;14.272;2023-04-25T04:10:59;6.90;75.10
38333;DHT22;25748;46.670;14.272;2023-04-25T04:13:28;6.90;75.20
38333;DHT22;25748;46.670;14.272;2023-04-25T04:15:54;7.00;75.90
38333;DHT22;25748;46.670;14.272;2023-04-25T04:18:21;7.00;76.00
38333;DHT22;25748;46.670;14.272;2023-04-25T04:20:47;7.00;76.00
38333;DHT22;25748;46.670;14.272;2023-04-25T04:23:12;7.00;75.90
38333;DHT22;25748;46.670;14.272;2023-04-25T04:25:38;6.90;75.60
38333;DHT22;25748;46.670;14.272;2023-04-25T04:28:05;6.90;75.70
38333;DHT22;25748;46.670;14.272;2023-04-25T04:30:31;6.90;75.70
38333;DHT22;25748;46.670;14.272;2023-04-25T04:32:58;6.90;75.90
38333;DHT22;25748;46.670;14.272;2023-04-25T04:35:24;6.80;75.40
38333;DHT22;25748;46.670;14.272;2023-04-25T04:37:50;6.60;75.40
38333;DHT22;25748;46.670;14.272;2023-04-25T04:40:16;6.50;75.60
38333;DHT22;25748;46.670;14.272;2023-04-25T04:42:43;6.50;76.60
38333;DHT22;25748;46.670;14.272;2023-04-25T04:45:09;6.60;76.90
38333;DHT22;25748;46.670;14.272;2023-04-25T04:47:35;6.60;77.40
38333;DHT22;25748;46.670;14.272;2023-04-25T04:50:03;6.50;76.80
38333;DHT22;25748;46.670;14.272;2023-04-25T04:52:32;6.60;77.20
38333;DHT22;25748;46.670;14.272;2023-04-25T04:54:58;6.60;76.80
38333;DHT22;25748;46.670;14.272;2023-04-25T04:57:24;6.70;76.40
38333;DHT22;25748;46.670;14.272;2023-04-25T04:59:50;6.70;76.50
38333;DHT22;25748;46.670;14.272;2023-04-25T05:02:15;6.80;76.40
38333;DHT22;25748;46.670;14.272;2023-04-25T05:04:41;6.60;75.60
38333;DHT22;25748;46.670;14.272;2023-04-25T05:07:07;6.60;76.00
38333;DHT22;25748;46.670;14.272;2023-04-25T05:09:32;6.60;76.50
38333;DHT22;25748;46.670;14.272;2023-04-25T05:11:58;6.60;76.50
38333;DHT22;25748;46.670;14.272;2023-04-25T05:14:24;6.60;76.70
38333;DHT22;25748;46.670;14.272;2023-04-25T05:16:50;6.60;76.10
38333;DHT22;25748;46.670;14.272;2023-04-25T05:19:16;6.50;75.90
38333;DHT22;25748;46.670;14.272;2023-04-25T05:21:41;6.50;76.70
38333;DHT22;25748;46.670;14.272;2023-04-25T05:24:08;6.50;76.50
38333;DHT22;25748;46.670;14.272;2023-04-25T05:26:34;6.40;77.00
38333;DHT22;25748;46.670;14.272;2023-04-25T05:29:00;6.40;77.30
38333;DHT22;25748;46.670;14.272;2023-04-25T05:31:26;6.50;77.80
38333;DHT22;25748;46.670;14.272;2023-04-25T05:33:52;6.50;77.20
38333;DHT22;25748;46.670;14.272;2023-04-25T05:36:19;6.40;77.80
38333;DHT22;25748;46.670;14.272;2023-04-25T05:38:45;6.40;77.90
38333;DHT22;25748;46.670;14.272;2023-04-25T05:41:11;6.40;78.10
38333;DHT22;25748;46.670;14.272;2023-04-25T05:43:36;6.40;77.60
38333;DHT22;25748;46.670;14.272;2023-04-25T05:46:02;6.40;77.80
38333;DHT22;25748;46.670;14.272;2023-04-25T05:48:28;6.40;78.40
38333;DHT22;25748;46.670;14.272;2023-04-25T05:50:53;6.40;78.20
38333;DHT22;25748;46.670;14.272;2023-04-25T05:53:20;6.40;78.20
38333;DHT22;25748;46.670;14.272;2023-04-25T05:55:47;6.50;78.00
38333;DHT22;25748;46.670;14.272;2023-04-25T05:58:12;6.50;79.00
38333;DHT22;25748;46.670;14.272;2023-04-25T06:00:38;6.50;78.10
38333;DHT22;25748;46.670;14.272;2023-04-25T06:03:04;6.60;77.90
38333;DHT22;25748;46.670;14.272;2023-04-25T06:05:29;6.60;77.80
38333;DHT22;25748;46.670;14.272;2023-04-25T06:07:55;6.60;77.80
38333;DHT22;25748;46.670;14.272;2023-04-25T06:10:21;6.70;77.90
38333;DHT22;25748;46.670;14.272;2023-04-25T06:12:48;6.70;77.80
38333;DHT22;25748;46.670;14.272;2023-04-25T06:15:13;6.70;77.50
38333;DHT22;25748;46.670;14.272;2023-04-25T06:17:39;6.80;77.40
38333;DHT22;25748;46.670;14.272;2023-04-25T06:20:05;6.80;77.00
38333;DHT22;25748;46.670;14.272;2023-04-25T06:22:31;6.80;76.70
38333;DHT22;25748;46.670;14.272;2023-04-25T06:24:57;6.90;77.10
38333;DHT22;25748;46.670;14.272;2023-04-25T06:27:24;7.00;77.10
38333;DHT22;25748;46.670;14.272;2023-04-25T06:29:50;7.00;76.70
38333;DHT22;25748;46.670;14.272;2023-04-25T06:32:16;7.10;75.90
38333;DHT22;25748;46.670;14.272;2023-04-25T06:34:43;7.00;74.70
38333;DHT22;25748;46.670;14.272;2023-04-25T06:37:09;6.90;74.90
38333;DHT22;25748;46.670;14.272;2023-04-25T06:39:35;7.00;75.30
38333;DHT22;25748;46.670;14.272;2023-04-25T06:42:00;7.00;75.10
38333;DHT22;25748;46.670;14.272;2023-04-25T06:44:26;7.00;74.80
38333;DHT22;25748;46.670;14.272;2023-04-25T06:46:54;7.00;75.40
38333;DHT22;25748;46.670;14.272;2023-04-25T06:49:20;6.90;76.10
38333;DHT22;25748;46.670;14.272;2023-04-25T06:51:46;6.90;76.40
38333;DHT22;25748;46.670;14.272;2023-04-25T06:54:11;7.10;77.20
38333;DHT22;25748;46.670;14.272;2023-04-25T06:56:37;7.10;76.30
38333;DHT22;25748;46.670;14.272;2023-04-25T06:59:03;7.10;76.60
38333;DHT22;25748;46.670;14.272;2023-04-25T07:01:29;7.20;76.40
38333;DHT22;25748;46.670;14.272;2023-04-25T07:03:55;7.20;75.40
38333;DHT22;25748;46.670;14.272;2023-04-25T07:06:20;7.30;75.80
38333;DHT22;25748;46.670;14.272;2023-04-25T07:08:46;7.30;75.00
38333;DHT22;25748;46.670;14.272;2023-04-25T07:11:12;7.40;74.80
38333;DHT22;25748;46.670;14.272;2023-04-25T07:13:38;7.40;74.50
38333;DHT22;25748;46.670;14.272;2023-04-25T07:16:03;7.50;73.90
38333;DHT22;25748;46.670;14.272;2023-04-25T07:18:29;7.50;73.30
38333;DHT22;25748;46.670;14.272;2023-04-25T07:20:55;7.60;73.20
38333;DHT22;25748;46.670;14.272;2023-04-25T07:23:20;7.60;72.50
38333;DHT22;25748;46.670;14.272;2023-04-25T07:25:47;7.60;72.00
38333;DHT22;25748;46.670;14.272;2023-04-25T07:28:12;7.60;71.50
38333;DHT22;25748;46.670;14.272;2023-04-25T07:30:39;7.60;71.40
38333;DHT22;25748;46.670;14.272;2023-04-25T07:33:05;7.70;71.90
38333;DHT22;25748;46.670;14.272;2023-04-25T07:35:30;7.70;71.30
38333;DHT22;25748;46.670;14.272;2023-04-25T07:37:56;7.70;70.70
38333;DHT22;25748;46.670;14.272;2023-04-25T07:40:22;7.80;70.90
38333;DHT22;25748;46.670;14.272;2023-04-25T07:42:47;8.00;71.20
38333;DHT22;25748;46.670;14.272;2023-04-25T07:45:13;8.00;70.30
38333;DHT22;25748;46.670;14.272;2023-04-25T07:47:39;8.10;69.80
38333;DHT22;25748;46.670;14.272;2023-04-25T07:50:05;8.10;68.50
38333;DHT22;25748;46.670;14.272;2023-04-25T07:52:31;8.10;69.60
38333;DHT22;25748;46.670;14.272;2023-04-25T07:54:57;8.20;69.00
38333;DHT22;25748;46.670;14.272;2023-04-25T07:57:24;8.30;68.90
38333;DHT22;25748;46.670;14.272;2023-04-25T07:59:49;8.30;68.60
38333;DHT22;25748;46.670;14.272;2023-04-25T08:02:15;8.40;68.10
38333;DHT22;25748;46.670;14.272;2023-04-25T08:04:41;8.40;67.30
38333;DHT22;25748;46.670;14.272;2023-04-25T08:07:06;8.50;67.50
38333;DHT22;25748;46.670;14.272;2023-04-25T08:09:32;8.50;67.50
38333;DHT22;25748;46.670;14.272;2023-04-25T08:12:02;8.40;65.80
38333;DHT22;25748;46.670;14.272;2023-04-25T08:14:28;8.40;67.10
38333;DHT22;25748;46.670;14.272;2023-04-25T08:16:56;8.50;67.80
38333;DHT22;25748;46.670;14.272;2023-04-25T08:19:22;8.60;66.50
38333;DHT22;25748;46.670;14.272;2023-04-25T08:21:48;8.70;66.70
38333;DHT22;25748;46.670;14.272;2023-04-25T08:24:13;8.80;66.40
38333;DHT22;25748;46.670;14.272;2023-04-25T08:26:39;8.80;65.40
38333;DHT22;25748;46.670;14.272;2023-04-25T08:29:06;8.70;64.60
38333;DHT22;25748;46.670;14.272;2023-04-25T08:31:31;8.70;65.10
38333;DHT22;25748;46.670;14.272;2023-04-25T08:33:57;8.70;64.80
38333;DHT22;25748;46.670;14.272;2023-04-25T08:36:23;8.70;64.00
38333;DHT22;25748;46.670;14.272;2023-04-25T08:38:49;8.80;64.80
38333;DHT22;25748;46.670;14.272;2023-04-25T08:41:15;8.90;63.90
38333;DHT22;25748;46.670;14.272;2023-04-25T08:43:42;9.20;63.50
38333;DHT22;25748;46.670;14.272;2023-04-25T08:46:09;9.30;63.90
38333;DHT22;25748;46.670;14.272;2023-04-25T08:48:36;9.20;62.80
38333;DHT22;25748;46.670;14.272;2023-04-25T08:51:02;9.00;62.20
38333;DHT22;25748;46.670;14.272;2023-04-25T08:53:32;9.10;64.20
38333;DHT22;25748;46.670;14.272;2023-04-25T08:56:00;9.10;62.30
38333;DHT22;25748;46.670;14.272;2023-04-25T08:58:28;9.30;63.50
38333;DHT22;25748;46.670;14.272;2023-04-25T09:00:54;9.40;61.10
38333;DHT22;25748;46.670;14.272;2023-04-25T09:03:20;9.30;61.00
38333;DHT22;25748;46.670;14.272;2023-04-25T09:05:46;9.30;61.70
38333;DHT22;25748;46.670;14.272;2023-04-25T09:08:11;9.40;61.60
38333;DHT22;25748;46.670;14.272;2023-04-25T09:10:38;9.30;60.80
38333;DHT22;25748;46.670;14.272;2023-04-25T09:13:04;9.40;63.00
38333;DHT22;25748;46.670;14.272;2023-04-25T09:15:31;9.60;63.20
38333;DHT22;25748;46.670;14.272;2023-04-25T09:17:58;9.50;60.90
38333;DHT22;25748;46.670;14.272;2023-04-25T09:20:24;9.40;61.20
38333;DHT22;25748;46.670;14.272;2023-04-25T09:23:02;9.70;61.70
38333;DHT22;25748;46.670;14.272;2023-04-25T09:25:37;9.80;61.10
38333;DHT22;25748;46.670;14.272;2023-04-25T09:28:06;9.80;61.40
38333;DHT22;25748;46.670;14.272;2023-04-25T09:30:33;10.00;62.00
38333;DHT22;25748;46.670;14.272;2023-04-25T09:33:07;10.00;59.70
38333;DHT22;25748;46.670;14.272;2023-04-25T09:35:39;10.10;61.40
38333;DHT22;25748;46.670;14.272;2023-04-25T09:38:12;10.40;60.90
38333;DHT22;25748;46.670;14.272;2023-04-25T09:40:42;10.60;59.50
38333;DHT22;25748;46.670;14.272;2023-04-25T09:43:28;10.70;59.10
38333;DHT22;25748;46.670;14.272;2023-04-25T09:45:55;11.00;59.40
38333;DHT22;25748;46.670;14.272;2023-04-25T09:48:25;11.00;58.60
38333;DHT22;25748;46.670;14.272;2023-04-25T09:51:09;11.00;58.10
38333;DHT22;25748;46.670;14.272;2023-04-25T09:53:37;11.20;58.70
38333;DHT22;25748;46.670;14.272;2023-04-25T09:56:05;11.50;58.40
38333;DHT22;25748;46.670;14.272;2023-04-25T09:58:32;11.80;58.20
38333;DHT22;25748;46.670;14.272;2023-04-25T10:01:00;11.70;56.80
38333;DHT22;25748;46.670;14.272;2023-04-25T10:03:26;11.90;57.40
38333;DHT22;25748;46.670;14.272;2023-04-25T10:05:55;12.20;56.80
38333;DHT22;25748;46.670;14.272;2023-04-25T10:08:22;12.50;56.60
38333;DHT22;25748;46.670;14.272;2023-04-25T10:10:49;12.70;56.50
38333;DHT22;25748;46.670;14.272;2023-04-25T10:13:16;12.70;55.70
38333;DHT22;25748;46.670;14.272;2023-04-25T10:15:42;12.70;53.60
38333;DHT22;25748;46.670;14.272;2023-04-25T10:18:08;12.60;51.70
38333;DHT22;25748;46.670;14.272;2023-04-25T10:20:34;12.70;52.70
38333;DHT22;25748;46.670;14.272;2023-04-25T10:23:13;13.20;53.50
38333;DHT22;25748;46.670;14.272;2023-04-25T10:25:40;12.90;51.00
38333;DHT22;25748;46.670;14.272;2023-04-25T10:28:06;13.40;51.10
38333;DHT22;25748;46.670;14.272;2023-04-25T10:30:32;13.30;51.30
38333;DHT22;25748;46.670;14.272;2023-04-25T10:32:59;13.40;51.10
38333;DHT22;25748;46.670;14.272;2023-04-25T10:40:23;13.60;50.10
38333;DHT22;25748;46.670;14.272;2023-04-25T10:42:48;13.70;49.70
38333;DHT22;25748;46.670;14.272;2023-04-25T10:45:14;13.30;49.30
38333;DHT22;25748;46.670;14.272;2023-04-25T10:47:44;13.30;49.30
38333;DHT22;25748;46.670;14.272;2023-04-25T10:50:15;13.50;50.10
38333;DHT22;25748;46.670;14.272;2023-04-25T10:52:43;13.50;50.20
38333;DHT22;25748;46.670;14.272;2023-04-25T10:55:10;13.70;49.10
38333;DHT22;25748;46.670;14.272;2023-04-25T10:57:39;13.60;49.30
38333;DHT22;25748;46.670;14.272;2023-04-25T11:02:44;13.30;48.80
38333;DHT22;25748;46.670;14.272;2023-04-25T11:05:30;13.20;49.10
38333;DHT22;25748;46.670;14.272;2023-04-25T11:07:57;13.30;49.80
38333;DHT22;25748;46.670;14.272;2023-04-25T11:10:27;13.40;49.30
38333;DHT22;25748;46.670;14.272;2023-04-25T11:12:53;13.70;49.70
38333;DHT22;25748;46.670;14.272;2023-04-25T11:15:19;13.70;49.00
38333;DHT22;25748;46.670;14.272;2023-04-25T11:17:45;14.10;49.00
38333;DHT22;25748;46.670;14.272;2023-04-25T11:20:12;13.90;47.00
38333;DHT22;25748;46.670;14.272;2023-04-25T11:22:39;13.70;46.40
38333;DHT22;25748;46.670;14.272;2023-04-25T11:25:07;13.80;47.60
38333;DHT22;25748;46.670;14.272;2023-04-25T11:27:33;13.90;47.30
38333;DHT22;25748;46.670;14.272;2023-04-25T11:30:10;14.20;47.50
38333;DHT22;25748;46.670;14.272;2023-04-25T11:32:36;14.30;47.40
38333;DHT22;25748;46.670;14.272;2023-04-25T11:35:01;14.50;46.80
38333;DHT22;25748;46.670;14.272;2023-04-25T11:37:28;14.50;46.70
38333;DHT22;25748;46.670;14.272;2023-04-25T11:39:54;14.60;46.20
38333;DHT22;25748;46.670;14.272;2023-04-25T11:42:19;14.30;46.50
38333;DHT22;25748;46.670;14.272;2023-04-25T11:44:45;14.10;46.10
38333;DHT22;25748;46.670;14.272;2023-04-25T11:47:11;14.30;47.90
38333;DHT22;25748;46.670;14.272;2023-04-25T11:49:37;14.30;46.40
38333;DHT22;25748;46.670;14.272;2023-04-25T11:52:02;14.20;47.20
38333;DHT22;25748;46.670;14.272;2023-04-25T11:54:31;14.20;47.80
38333;DHT22;25748;46.670;14.272;2023-04-25T11:56:57;14.30;47.00
38333;DHT22;25748;46.670;14.272;2023-04-25T11:59:25;14.30;47.30
38333;DHT22;25748;46.670;14.272;2023-04-25T12:01:52;14.50;47.60
38333;DHT22;25748;46.670;14.272;2023-04-25T12:04:20;14.60;47.60
38333;DHT22;25748;46.670;14.272;2023-04-25T12:06:47;14.80;47.40
38333;DHT22;25748;46.670;14.272;2023-04-25T12:09:15;15.00;46.90
38333;DHT22;25748;46.670;14.272;2023-04-25T12:11:46;15.20;46.60
38333;DHT22;25748;46.670;14.272;2023-04-25T12:14:12;15.00;46.40
38333;DHT22;25748;46.670;14.272;2023-04-25T12:16:46;14.90;46.60
38333;DHT22;25748;46.670;14.272;2023-04-25T12:19:16;14.80;46.80
38333;DHT22;25748;46.670;14.272;2023-04-25T12:21:43;14.80;45.40
38333;DHT22;25748;46.670;14.272;2023-04-25T12:24:22;14.80;45.00
38333;DHT22;25748;46.670;14.272;2023-04-25T12:26:59;14.80;45.20
38333;DHT22;25748;46.670;14.272;2023-04-25T12:29:26;14.70;44.70
38333;DHT22;25748;46.670;14.272;2023-04-25T12:31:54;14.60;44.80
38333;DHT22;25748;46.670;14.272;2023-04-25T12:34:21;14.50;45.40
38333;DHT22;25748;46.670;14.272;2023-04-25T12:36:48;14.60;46.20
38333;DHT22;25748;46.670;14.272;2023-04-25T12:39:20;14.60;45.60
38333;DHT22;25748;46.670;14.272;2023-04-25T12:41:47;14.60;45.40
38333;DHT22;25748;46.670;14.272;2023-04-25T12:44:13;14.50;45.70
38333;DHT22;25748;46.670;14.272;2023-04-25T12:46:40;14.60;44.80
38333;DHT22;25748;46.670;14.272;2023-04-25T12:49:07;14.60;44.80
38333;DHT22;25748;46.670;14.272;2023-04-25T12:51:34;14.70;43.50
38333;DHT22;25748;46.670;14.272;2023-04-25T12:54:00;14.70;42.80
38333;DHT22;25748;46.670;14.272;2023-04-25T12:56:27;14.70;42.70
38333;DHT22;25748;46.670;14.272;2023-04-25T12:58:53;14.70;43.00
38333;DHT22;25748;46.670;14.272;2023-04-25T13:01:19;14.70;42.50
38333;DHT22;25748;46.670;14.272;2023-04-25T13:03:46;14.70;42.30
38333;DHT22;25748;46.670;14.272;2023-04-25T13:06:11;14.60;41.40
38333;DHT22;25748;46.670;14.272;2023-04-25T13:08:38;14.60;43.50
38333;DHT22;25748;46.670;14.272;2023-04-25T13:11:05;14.50;43.30
38333;DHT22;25748;46.670;14.272;2023-04-25T13:13:31;14.30;43.50
38333;DHT22;25748;46.670;14.272;2023-04-25T13:15:58;14.00;43.50
38333;DHT22;25748;46.670;14.272;2023-04-25T13:18:23;13.80;44.00
38333;DHT22;25748;46.670;14.272;2023-04-25T13:20:52;13.80;44.70
38333;DHT22;25748;46.670;14.272;2023-04-25T13:23:19;13.70;43.20
38333;DHT22;25748;46.670;14.272;2023-04-25T13:25:45;13.70;44.10
38333;DHT22;25748;46.670;14.272;2023-04-25T13:28:11;13.70;43.60
38333;DHT22;25748;46.670;14.272;2023-04-25T13:30:37;13.80;43.30
38333;DHT22;25748;46.670;14.272;2023-04-25T13:33:02;13.70;43.40
38333;DHT22;25748;46.670;14.272;2023-04-25T13:35:29;13.70;43.20
38333;DHT22;25748;46.670;14.272;2023-04-25T13:37:55;13.70;44.00
38333;DHT22;25748;46.670;14.272;2023-04-25T13:40:21;13.70;44.20
38333;DHT22;25748;46.670;14.272;2023-04-25T13:42:47;13.80;43.40
38333;DHT22;25748;46.670;14.272;2023-04-25T13:45:13;13.80;43.90
38333;DHT22;25748;46.670;14.272;2023-04-25T13:47:39;13.90;44.30
38333;DHT22;25748;46.670;14.272;2023-04-25T13:50:06;13.90;44.00
38333;DHT22;25748;46.670;14.272;2023-04-25T13:52:32;14.00;44.30
38333;DHT22;25748;46.670;14.272;2023-04-25T13:54:58;14.10;44.10
38333;DHT22;25748;46.670;14.272;2023-04-25T13:57:24;14.10;43.70
38333;DHT22;25748;46.670;14.272;2023-04-25T13:59:51;14.30;44.10
38333;DHT22;25748;46.670;14.272;2023-04-25T14:02:17;14.30;44.10
38333;DHT22;25748;46.670;14.272;2023-04-25T14:04:42;14.30;43.60
38333;DHT22;25748;46.670;14.272;2023-04-25T14:07:11;14.30;43.10
38333;DHT22;25748;46.670;14.272;2023-04-25T14:09:37;14.30;43.50
38333;DHT22;25748;46.670;14.272;2023-04-25T14:12:05;14.30;43.80
38333;DHT22;25748;46.670;14.272;2023-04-25T14:14:31;14.30;44.70
38333;DHT22;25748;46.670;14.272;2023-04-25T14:16:57;14.30;43.80
38333;DHT22;25748;46.670;14.272;2023-04-25T14:19:23;14.20;44.40
38333;DHT22;25748;46.670;14.272;2023-04-25T14:21:49;14.20;44.10
38333;DHT22;25748;46.670;14.272;2023-04-25T14:24:17;14.20;42.90
38333;DHT22;25748;46.670;14.272;2023-04-25T14:26:43;14.10;42.50
38333;DHT22;25748;46.670;14.272;2023-04-25T14:29:09;14.10;43.50
38333;DHT22;25748;46.670;14.272;2023-04-25T14:31:37;14.10;43.80
38333;DHT22;25748;46.670;14.272;2023-04-25T14:34:03;14.00;44.10
38333;DHT22;25748;46.670;14.272;2023-04-25T14:36:29;14.00;44.20
38333;DHT22;25748;46.670;14.272;2023-04-25T14:38:56;13.90;44.40
38333;DHT22;25748;46.670;14.272;2023-04-25T14:41:22;13.90;44.20
38333;DHT22;25748;46.670;14.272;2023-04-25T14:43:48;14.00;44.50
38333;DHT22;25748;46.670;14.272;2023-04-25T14:46:14;14.10;45.10
38333;DHT22;25748;46.670;14.272;2023-04-25T14:48:40;14.10;45.10
38333;DHT22;25748;46.670;14.272;2023-04-25T14:51:05;14.20;44.90
38333;DHT22;25748;46.670;14.272;2023-04-25T14:53:31;14.20;44.70
38333;DHT22;25748;46.670;14.272;2023-04-25T14:55:57;14.30;44.40
38333;DHT22;25748;46.670;14.272;2023-04-25T14:58:23;14.40;44.00
38333;DHT22;25748;46.670;14.272;2023-04-25T15:00:50;14.50;43.90
38333;DHT22;25748;46.670;14.272;2023-04-25T15:03:16;14.60;43.70
38333;DHT22;25748;46.670;14.272;2023-04-25T15:05:43;14.60;43.50
38333;DHT22;25748;46.670;14.272;2023-04-25T15:08:09;14.70;43.10
38333;DHT22;25748;46.670;14.272;2023-04-25T15:10:35;14.70;43.30
38333;DHT22;25748;46.670;14.272;2023-04-25T15:13:01;14.80;42.30
38333;DHT22;25748;46.670;14.272;2023-04-25T15:15:30;14.80;42.90
38333;DHT22;25748;46.670;14.272;2023-04-25T15:17:59;14.80;42.70
38333;DHT22;25748;46.670;14.272;2023-04-25T15:20:25;14.80;42.20
38333;DHT22;25748;46.670;14.272;2023-04-25T15:22:52;14.80;43.50
38333;DHT22;25748;46.670;14.272;2023-04-25T15:25:17;14.80;43.40
38333;DHT22;25748;46.670;14.272;2023-04-25T15:27:44;14.90;42.40
38333;DHT22;25748;46.670;14.272;2023-04-25T15:30:12;14.90;41.70